Time;durP1;ratioP1;P1;durP2;ratioP2;P2;SDS_P1;SDS_P2;PMS_P1;PMS_P2;Temp;Humidity;BMP_temperature;BMP_pressure;BME280_temperature;BME280_humidity;BME280_pressure;Samples;Min_cycle;Max_cycle;Signal;HPM_P1;HPM_P2
2021/08/09 00:00:53;;;;;;;11.63;6.28;;;;;;;21.13;76.89;101369.19;1710494;83;20900;-74
2021/08/09 00:03:20;;;;;;;10.20;5.78;;;;;;;21.09;76.81;101369.98;1710433;83;21030;-74
2021/08/09 00:05:48;;;;;;;12.35;6.20;;;;;;;21.09;76.91;101371.30;1710609;83;20976;-74
2021/08/09 00:08:18;;;;;;;11.75;6.20;;;;;;;21.07;77.06;101373.73;1710743;83;21029;-74
2021/08/09 00:10:46;;;;;;;10.95;6.40;;;;;;;21.07;77.40;101368.45;1710458;83;21066;-74
2021/08/09 00:13:14;;;;;;;11.40;6.37;;;;;;;21.06;77.80;101369.42;1710534;83;20976;-74
2021/08/09 00:15:42;;;;;;;10.13;5.83;;;;;;;21.06;78.39;101373.38;1710322;83;20972;-74
2021/08/09 00:18:11;;;;;;;14.03;5.85;;;;;;;21.06;78.62;101373.38;1710635;83;20939;-74
2021/08/09 00:20:37;;;;;;;7.70;5.67;;;;;;;21.04;78.80;101372.71;1710609;83;21150;-74
2021/08/09 00:23:05;;;;;;;9.45;5.70;;;;;;;21.02;78.87;101375.52;1710317;83;21019;-73
2021/08/09 00:25:33;;;;;;;8.85;5.95;;;;;;;21.03;79.20;101377.64;1710715;83;20896;-74
2021/08/09 00:28:02;;;;;;;7.95;5.42;;;;;;;21.01;79.37;101371.70;1710587;83;20947;-73
2021/08/09 00:30:29;;;;;;;10.55;5.30;;;;;;;20.98;79.41;101366.72;1710551;83;20971;-73
2021/08/09 00:32:57;;;;;;;10.00;6.60;;;;;;;20.95;79.61;101365.22;1710629;83;20984;-74
2021/08/09 00:35:25;;;;;;;7.72;5.37;;;;;;;20.92;79.86;101362.05;1710441;83;21672;-73
2021/08/09 00:37:54;;;;;;;10.20;5.47;;;;;;;20.91;79.84;101361.22;1714085;83;20979;-73
2021/08/09 00:40:23;;;;;;;11.03;5.35;;;;;;;20.90;79.79;101366.15;1710718;83;20915;-73
2021/08/09 00:42:51;;;;;;;9.25;5.92;;;;;;;20.88;79.64;101363.33;1710446;83;20936;-74
2021/08/09 00:45:18;;;;;;;11.22;5.60;;;;;;;20.86;79.66;101367.45;1710634;83;21083;-74
2021/08/09 00:47:46;;;;;;;12.58;5.25;;;;;;;20.83;80.05;101366.44;1710389;83;21043;-74
2021/08/09 00:50:14;;;;;;;9.15;5.15;;;;;;;20.84;80.22;101363.28;1710507;83;20943;-74
2021/08/09 00:52:42;;;;;;;12.78;5.72;;;;;;;20.83;80.30;101365.12;1710569;83;20952;-74
2021/08/09 00:55:09;;;;;;;8.48;5.35;;;;;;;20.83;80.41;101359.00;1710502;83;21537;-74
2021/08/09 00:57:36;;;;;;;8.03;5.53;;;;;;;20.82;80.67;101358.66;1710526;83;21753;-74
2021/08/09 01:00:04;;;;;;;11.25;5.28;;;;;;;20.80;80.86;101355.34;1690673;83;20904;-74
2021/08/09 01:02:33;;;;;;;7.47;5.33;;;;;;;20.77;80.83;101357.77;1710616;83;20896;-74
2021/08/09 01:05:03;;;;;;;8.43;4.80;;;;;;;20.77;81.18;101361.73;1710677;83;21008;-74
2021/08/09 01:07:35;;;;;;;5.75;4.67;;;;;;;20.77;81.37;101360.92;1710654;83;21423;-74
2021/08/09 01:10:09;;;;;;;6.67;5.08;;;;;;;20.76;81.49;101352.18;1709944;83;22030;-73
2021/08/09 01:12:49;;;;;;;9.35;5.30;;;;;;;20.73;81.52;101362.20;1690437;83;21467;-73
2021/08/09 01:15:20;;;;;;;10.55;5.62;;;;;;;20.70;81.45;101358.54;1706536;82;21010;-74
2021/08/09 01:17:48;;;;;;;11.33;4.80;;;;;;;20.66;81.30;101359.81;1705880;84;20980;-73
2021/08/09 01:20:40;;;;;;;7.10;4.50;;;;;;;20.64;81.01;101357.34;1685996;84;20904;-73
2021/08/09 01:23:47;;;;;;;10.53;5.33;;;;;;;20.62;80.93;101361.91;1705828;84;21532;-73
2021/08/09 01:26:43;;;;;;;10.45;5.08;;;;;;;20.59;80.91;101363.05;1709423;83;20988;-73
2021/08/09 01:29:14;;;;;;;10.32;5.53;;;;;;;20.55;80.95;101362.16;1705987;84;22050;-73
2021/08/09 01:31:46;;;;;;;10.05;5.12;;;;;;;20.50;81.21;101358.66;1685993;84;21078;-73
2021/08/09 01:34:16;;;;;;;7.33;4.78;;;;;;;20.49;81.26;101350.89;1706159;84;21569;-73
2021/08/09 01:36:48;;;;;;;11.25;5.20;;;;;;;20.47;81.51;101356.33;1705909;84;21147;-72
2021/08/09 01:39:16;;;;;;;8.73;4.70;;;;;;;20.45;81.67;101354.83;1705479;84;21587;-72
2021/08/09 01:41:44;;;;;;;5.70;4.78;;;;;;;20.44;81.97;101355.80;1705798;83;21431;-73
2021/08/09 01:44:10;;;;;;;7.92;5.28;;;;;;;20.42;82.09;101357.24;1685984;84;20901;-72
2021/08/09 01:46:37;;;;;;;5.75;4.87;;;;;;;20.40;81.92;101355.73;1705884;84;21060;-73
2021/08/09 01:49:05;;;;;;;5.92;4.92;;;;;;;20.38;81.95;101362.98;1685919;84;21786;-72
2021/08/09 01:51:33;;;;;;;7.28;4.78;;;;;;;20.36;82.00;101358.32;1705857;84;21463;-72
2021/08/09 01:54:03;;;;;;;6.80;4.50;;;;;;;20.35;82.13;101360.64;1686054;84;21479;-73
2021/08/09 01:56:32;;;;;;;9.48;5.00;;;;;;;20.34;82.30;101353.21;1705752;84;21436;-73
2021/08/09 01:58:59;;;;;;;8.08;5.42;;;;;;;20.34;82.57;101358.48;1705778;84;21020;-73
2021/08/09 02:01:28;;;;;;;7.25;5.00;;;;;;;20.33;82.78;101358.61;1706021;84;21826;-73
2021/08/09 02:03:55;;;;;;;7.67;4.65;;;;;;;20.31;82.88;101357.95;1705985;84;21685;-72
2021/08/09 02:06:22;;;;;;;9.70;4.67;;;;;;;20.29;83.12;101352.84;1706055;84;20995;-72
2021/08/09 02:08:48;;;;;;;6.58;4.65;;;;;;;20.30;83.40;101358.42;1705918;84;20995;-72
2021/08/09 02:11:26;;;;;;;9.78;5.55;;;;;;;20.29;83.56;101355.47;1706068;84;21539;-72
2021/08/09 02:14:00;;;;;;;7.62;5.47;;;;;;;20.29;83.35;101358.11;1706301;83;21139;-72
2021/08/09 02:16:44;;;;;;;12.15;5.90;;;;;;;20.27;83.25;101356.57;1710582;84;21542;-72
2021/08/09 02:19:27;;;;;;;11.12;5.65;;;;;;;20.27;83.35;101359.20;1690601;84;21118;-72
2021/08/09 02:22:20;;;;;;;7.12;5.33;;;;;;;20.28;83.88;101360.88;1710688;83;21467;-73
2021/08/09 02:24:58;;;;;;;8.55;4.87;;;;;;;20.30;84.28;101359.75;1701740;84;21146;-73
2021/08/09 02:27:29;;;;;;;8.58;5.28;;;;;;;20.33;84.33;101358.61;1710714;83;21166;-72
2021/08/09 02:29:55;;;;;;;9.43;6.10;;;;;;;20.35;84.63;101361.47;1710069;83;21672;-73
2021/08/09 02:32:26;;;;;;;10.05;6.00;;;;;;;20.36;84.75;101359.64;1710662;83;20936;-73
2021/08/09 02:34:54;;;;;;;6.83;6.00;;;;;;;20.36;84.82;101364.91;1710817;83;20951;-72
2021/08/09 02:37:20;;;;;;;9.50;6.12;;;;;;;20.34;84.98;101361.60;1710726;83;21000;-73
2021/08/09 02:39:48;;;;;;;10.43;6.05;;;;;;;20.33;84.53;101359.93;1710761;83;21127;-72
2021/08/09 02:42:15;;;;;;;10.48;5.80;;;;;;;20.31;84.39;101365.85;1710538;83;21019;-73
2021/08/09 02:44:42;;;;;;;8.90;5.53;;;;;;;20.30;84.51;101362.86;1710456;83;20983;-73
2021/08/09 02:47:11;;;;;;;10.05;5.00;;;;;;;20.28;84.63;101366.14;1690776;83;21066;-74
2021/08/09 02:49:40;;;;;;;6.70;5.65;;;;;;;20.25;84.58;101373.83;1690677;83;20987;-73
2021/08/09 02:52:08;;;;;;;9.80;6.60;;;;;;;20.21;84.90;101369.82;1710635;83;21486;-73
2021/08/09 02:54:36;;;;;;;6.67;5.83;;;;;;;20.20;85.12;101368.66;1710754;83;20975;-73
2021/08/09 02:57:03;;;;;;;9.48;6.00;;;;;;;20.19;84.97;101369.63;1710479;83;20960;-73
2021/08/09 02:59:32;;;;;;;6.42;5.35;;;;;;;20.17;84.87;101370.24;1710801;83;21102;-74
2021/08/09 03:01:59;;;;;;;8.25;7.05;;;;;;;20.16;84.64;101372.08;1710800;83;20920;-74
2021/08/09 03:04:25;;;;;;;9.55;7.20;;;;;;;20.14;84.76;101376.64;1690606;83;21599;-74
2021/08/09 03:06:54;;;;;;;9.95;6.40;;;;;;;20.11;84.88;101381.38;1714266;83;20992;-74
2021/08/09 03:09:21;;;;;;;9.38;6.15;;;;;;;20.10;85.25;101375.30;1714576;83;20948;-73
2021/08/09 03:11:50;;;;;;;10.10;5.95;;;;;;;20.10;85.56;101385.00;1710722;83;21006;-73
2021/08/09 03:14:23;;;;;;;7.87;6.08;;;;;;;20.07;85.80;101385.61;1710767;83;20901;-73
2021/08/09 03:16:53;;;;;;;6.78;5.85;;;;;;;20.09;85.89;101388.12;1710584;83;21403;-73
2021/08/09 03:19:19;;;;;;;8.23;6.62;;;;;;;20.10;85.73;101383.69;1710543;83;20967;-72
2021/08/09 03:21:59;;;;;;;7.28;6.50;;;;;;;20.09;85.72;101382.85;1710580;83;21159;-72
2021/08/09 03:24:27;;;;;;;8.20;5.75;;;;;;;20.07;85.44;101388.25;1690439;83;20998;-72
2021/08/09 03:26:55;;;;;;;8.25;6.92;;;;;;;20.04;85.18;101394.30;1710634;83;21054;-72
2021/08/09 03:29:22;;;;;;;7.50;6.30;;;;;;;20.03;85.01;101403.20;1710561;83;21621;-74
2021/08/09 03:31:49;;;;;;;10.28;6.62;;;;;;;20.02;84.78;101399.72;1714282;83;21026;-74
2021/08/09 03:34:15;;;;;;;7.33;6.55;;;;;;;20.03;84.57;101403.20;1710656;83;21038;-73
2021/08/09 03:36:44;;;;;;;8.50;7.15;;;;;;;20.03;84.37;101397.92;1710315;83;21028;-73
2021/08/09 03:39:11;;;;;;;7.53;6.70;;;;;;;20.04;84.35;101404.83;1710502;83;20963;-74
2021/08/09 03:41:39;;;;;;;15.08;6.40;;;;;;;20.04;84.15;101410.94;1710306;83;21099;-74
2021/08/09 03:44:05;;;;;;;13.18;6.22;;;;;;;20.05;83.97;101409.14;1710113;83;21007;-73
2021/08/09 03:46:32;;;;;;;9.43;6.70;;;;;;;20.05;83.66;101409.14;1710527;83;21058;-73
2021/08/09 03:48:59;;;;;;;9.05;6.72;;;;;;;20.05;83.24;101415.72;1710305;83;20904;-73
2021/08/09 03:51:25;;;;;;;7.47;6.60;;;;;;;20.04;82.82;101421.48;1710773;83;21034;-73
2021/08/09 03:53:53;;;;;;;12.25;6.83;;;;;;;20.06;82.44;101426.14;1710313;83;21967;-73
2021/08/09 03:56:20;;;;;;;8.28;6.30;;;;;;;20.06;82.21;101420.86;1710738;83;20928;-74
2021/08/09 03:58:47;;;;;;;7.33;6.12;;;;;;;20.10;82.14;101425.36;1710600;83;21569;-74
2021/08/09 04:01:15;;;;;;;8.13;6.53;;;;;;;20.15;81.78;101430.19;1710626;83;20904;-73
2021/08/09 04:03:42;;;;;;;8.43;6.75;;;;;;;20.18;81.54;101427.26;1710587;83;20885;-74
2021/08/09 04:06:10;;;;;;;11.65;6.92;;;;;;;20.20;81.34;101427.45;1710595;83;21133;-73
2021/08/09 04:08:40;;;;;;;9.63;7.00;;;;;;;20.24;80.94;101435.42;1710691;83;20936;-73
2021/08/09 04:11:08;;;;;;;8.73;7.10;;;;;;;20.26;80.41;101433.49;1710372;83;20948;-73
2021/08/09 04:13:35;;;;;;;13.32;6.42;;;;;;;20.29;80.07;101433.71;1710836;83;21483;-73
2021/08/09 04:16:02;;;;;;;10.18;6.30;;;;;;;20.34;79.39;101439.37;1707121;83;20954;-73
2021/08/09 04:18:30;;;;;;;7.58;6.78;;;;;;;20.39;78.53;101439.78;1706012;84;20837;-73
2021/08/09 04:20:58;;;;;;;9.63;6.72;;;;;;;20.46;78.80;101436.87;1705986;84;20933;-74
2021/08/09 04:23:24;;;;;;;9.83;7.00;;;;;;;20.51;78.62;101441.24;1706077;82;20992;-73
2021/08/09 04:25:52;;;;;;;10.08;6.50;;;;;;;20.54;78.36;101433.87;1705932;84;20948;-74
2021/08/09 04:28:19;;;;;;;7.33;5.95;;;;;;;20.58;78.18;101437.05;1705931;84;20972;-73
2021/08/09 04:30:45;;;;;;;8.85;6.50;;;;;;;20.64;78.08;101436.45;1705999;84;22149;-73
2021/08/09 04:33:12;;;;;;;10.65;6.37;;;;;;;20.70;77.76;101431.08;1705836;84;21010;-73
2021/08/09 04:35:39;;;;;;;11.35;7.35;;;;;;;20.76;77.33;101424.72;1706042;84;20972;-74
2021/08/09 04:38:06;;;;;;;10.03;6.42;;;;;;;20.84;76.89;101431.88;1709977;83;21001;-73
2021/08/09 04:40:33;;;;;;;11.78;7.15;;;;;;;20.88;76.18;101432.76;1709420;83;20995;-73
2021/08/09 04:43:00;;;;;;;17.40;6.85;;;;;;;20.93;75.53;101427.85;1705822;84;21531;-74
2021/08/09 04:45:27;;;;;;;10.53;6.28;;;;;;;20.99;75.18;101425.96;1706025;84;21089;-73
2021/08/09 04:47:54;;;;;;;7.92;6.62;;;;;;;21.05;74.86;101426.67;1705933;84;20925;-73
2021/08/09 04:50:21;;;;;;;9.70;6.83;;;;;;;21.15;74.46;101425.32;1705948;84;20952;-72
2021/08/09 04:52:47;;;;;;;16.48;7.30;;;;;;;21.21;74.08;101431.31;1706122;84;21031;-73
2021/08/09 04:55:17;;;;;;;9.38;6.47;;;;;;;21.29;73.85;101427.41;1706190;83;20956;-73
2021/08/09 04:57:44;;;;;;;11.53;6.53;;;;;;;21.33;73.55;101419.53;1706050;84;21463;-74
2021/08/09 05:00:14;;;;;;;9.00;6.83;;;;;;;21.41;73.41;101427.50;1706059;84;21029;-73
2021/08/09 05:02:41;;;;;;;9.95;6.87;;;;;;;21.47;73.20;101427.41;1708877;83;20908;-74
2021/08/09 05:05:10;;;;;;;9.43;6.42;;;;;;;21.53;72.89;101426.80;1705960;84;20944;-74
2021/08/09 05:07:37;;;;;;;10.00;6.53;;;;;;;21.59;72.69;101423.53;1705737;84;21998;-74
2021/08/09 05:10:06;;;;;;;12.55;5.92;;;;;;;21.67;72.60;101425.39;1705877;84;20987;-74
2021/08/09 05:12:33;;;;;;;10.72;6.08;;;;;;;21.75;72.41;101421.01;1706165;84;20975;-74
2021/08/09 05:15:03;;;;;;;10.10;5.55;;;;;;;21.80;72.14;101420.04;1706250;83;21024;-73
2021/08/09 05:17:29;;;;;;;7.97;5.95;;;;;;;21.89;71.83;101423.62;1708751;84;20996;-74
2021/08/09 05:19:58;;;;;;;12.75;6.42;;;;;;;21.96;71.52;101423.30;1708477;84;21164;-75
2021/08/09 05:22:26;;;;;;;8.28;5.70;;;;;;;22.02;71.21;101418.22;1708590;84;21042;-74
2021/08/09 05:24:54;;;;;;;9.50;5.62;;;;;;;22.11;70.90;101429.17;1708452;84;21439;-74
2021/08/09 05:27:20;;;;;;;11.05;6.15;;;;;;;22.18;70.77;101425.41;1708539;84;20995;-73
2021/08/09 05:29:47;;;;;;;12.82;5.70;;;;;;;22.25;70.50;101423.80;1708411;84;21067;-75
2021/08/09 05:32:14;;;;;;;7.95;5.33;;;;;;;22.33;70.04;101428.30;1708364;84;21956;-74
2021/08/09 05:34:42;;;;;;;7.40;5.00;;;;;;;22.41;69.71;101424.36;1687966;83;20932;-73
2021/08/09 05:37:09;;;;;;;9.15;5.65;;;;;;;22.46;69.32;101424.20;1708023;82;20983;-74
2021/08/09 05:39:37;;;;;;;7.42;4.67;;;;;;;22.56;67.92;101421.43;1708697;84;21495;-74
2021/08/09 05:42:05;;;;;;;8.80;4.80;;;;;;;22.65;67.44;101417.36;1708545;84;20979;-74
2021/08/09 05:44:31;;;;;;;8.10;4.62;;;;;;;22.74;67.49;101418.23;1708526;84;21090;-73
2021/08/09 05:46:58;;;;;;;8.28;5.03;;;;;;;22.80;67.39;101416.26;1708118;84;21011;-74
2021/08/09 05:49:25;;;;;;;8.83;5.20;;;;;;;22.89;67.19;101422.39;1708331;84;21334;-74
2021/08/09 05:51:55;;;;;;;10.50;4.90;;;;;;;22.96;66.93;101422.91;1708256;82;21046;-73
2021/08/09 05:54:22;;;;;;;6.47;3.77;;;;;;;23.03;66.74;101413.33;1708517;84;21582;-74
2021/08/09 05:56:49;;;;;;;12.68;4.55;;;;;;;23.13;65.75;101414.50;1708334;82;21116;-74
2021/08/09 05:59:18;;;;;;;8.73;4.65;;;;;;;23.23;65.04;101406.39;1712537;81;20983;-73
2021/08/09 06:01:46;;;;;;;5.83;4.00;;;;;;;23.34;64.13;101410.86;1721428;82;20948;-73
2021/08/09 06:04:15;;;;;;;8.93;3.47;;;;;;;23.45;63.35;101406.56;1708094;82;21105;-74
2021/08/09 06:06:43;;;;;;;5.22;3.45;;;;;;;23.56;61.87;101406.23;1716538;82;21551;-75
2021/08/09 06:09:16;;;;;;;4.78;3.45;;;;;;;23.65;60.76;101402.58;1727890;82;21565;-73
2021/08/09 06:11:44;;;;;;;6.75;3.62;;;;;;;23.76;60.04;101404.06;1737721;81;20834;-74
2021/08/09 06:14:11;;;;;;;5.22;3.58;;;;;;;23.88;59.85;101400.55;1737994;82;21523;-75
2021/08/09 06:16:38;;;;;;;7.60;3.67;;;;;;;23.95;59.69;101407.66;1743325;82;21520;-74
2021/08/09 06:19:08;;;;;;;4.42;3.47;;;;;;;24.03;58.66;101402.33;1746341;82;21638;-74
2021/08/09 06:21:36;;;;;;;8.50;3.22;;;;;;;24.13;57.58;101409.63;1745143;82;21899;-76
2021/08/09 06:24:04;;;;;;;8.80;4.03;;;;;;;24.25;57.09;101402.63;1735235;80;20879;-74
2021/08/09 06:26:33;;;;;;;4.70;3.45;;;;;;;24.36;56.49;101408.87;1723515;80;21019;-74
2021/08/09 06:29:01;;;;;;;8.50;3.42;;;;;;;24.42;56.35;101405.03;1743179;80;21019;-73
2021/08/09 06:31:30;;;;;;;3.72;3.15;;;;;;;24.49;56.74;101407.81;1745056;82;21482;-74
2021/08/09 06:33:58;;;;;;;8.05;3.70;;;;;;;24.54;56.46;101412.92;1734397;80;21124;-74
2021/08/09 06:36:26;;;;;;;5.70;3.45;;;;;;;24.59;55.85;101409.27;1716125;83;20971;-74
2021/08/09 06:38:53;;;;;;;4.72;3.27;;;;;;;24.65;55.66;101414.37;1716474;83;20980;-74
2021/08/09 06:41:21;;;;;;;7.62;3.72;;;;;;;24.70;55.05;101415.98;1716427;83;21122;-73
2021/08/09 06:43:50;;;;;;;5.97;3.72;;;;;;;24.76;54.80;101412.13;1715151;83;21083;-73
2021/08/09 06:46:19;;;;;;;9.35;3.92;;;;;;;24.85;54.61;101407.66;1716843;83;20955;-72
2021/08/09 06:48:46;;;;;;;7.08;3.45;;;;;;;24.96;53.37;101401.92;1716805;83;20932;-73
2021/08/09 06:51:14;;;;;;;5.42;3.50;;;;;;;25.09;52.55;101402.66;1716820;83;21018;-74
2021/08/09 06:53:41;;;;;;;7.78;3.67;;;;;;;25.21;52.22;101409.20;1716681;83;21058;-73
2021/08/09 06:56:13;;;;;;;4.58;3.30;;;;;;;25.36;52.05;101394.16;1698482;83;20951;-73
2021/08/09 06:58:39;;;;;;;4.28;3.37;;;;;;;25.49;51.40;101394.40;1715893;82;21587;-72
2021/08/09 07:01:06;;;;;;;7.62;3.80;;;;;;;25.59;50.88;101396.27;1716399;83;20884;-73
2021/08/09 07:03:33;;;;;;;7.50;5.97;;;;;;;25.69;50.48;101401.33;1716483;83;20929;-73
2021/08/09 07:06:01;;;;;;;9.68;5.40;;;;;;;25.73;50.72;101397.30;1716243;83;21016;-75
2021/08/09 07:08:27;;;;;;;8.13;4.25;;;;;;;25.78;50.57;101401.59;1716187;82;21075;-74
2021/08/09 07:10:59;;;;;;;5.37;4.20;;;;;;;25.83;50.52;101398.36;1716284;83;21093;-74
2021/08/09 07:13:27;;;;;;;5.50;3.87;;;;;;;25.87;50.64;101397.83;1716300;83;20987;-73
2021/08/09 07:15:54;;;;;;;9.20;4.12;;;;;;;25.94;50.87;101394.73;1716350;83;21557;-75
2021/08/09 07:18:22;;;;;;;6.35;3.27;;;;;;;26.01;50.54;101399.65;1716502;83;20954;-75
2021/08/09 07:20:50;;;;;;;6.78;3.70;;;;;;;26.09;49.83;101408.05;1716753;82;20936;-78
2021/08/09 07:23:18;;;;;;;6.10;3.80;;;;;;;26.19;48.81;101403.31;1715597;83;21137;-74
2021/08/09 07:25:45;;;;;;;7.83;4.17;;;;;;;26.26;48.54;101402.37;1717521;80;21068;-73
2021/08/09 07:28:12;;;;;;;6.85;4.22;;;;;;;26.31;48.77;101407.15;1725825;82;20900;-75
2021/08/09 07:30:39;;;;;;;5.58;3.83;;;;;;;26.39;48.46;101400.91;1697284;83;20984;-75
2021/08/09 07:33:06;;;;;;;5.78;4.10;;;;;;;26.48;48.58;101401.12;1732090;82;20971;-76
2021/08/09 07:35:33;;;;;;;5.65;3.65;;;;;;;26.57;48.05;101401.32;1746251;82;21518;-73
2021/08/09 07:38:00;;;;;;;5.92;3.27;;;;;;;26.64;47.41;101403.05;1746012;82;20979;-73
2021/08/09 07:40:28;;;;;;;11.63;4.65;;;;;;;26.68;46.92;101412.80;1743599;82;21486;-71
2021/08/09 07:42:57;;;;;;;7.67;3.75;;;;;;;26.69;47.57;101407.80;1729123;81;21062;-75
2021/08/09 07:45:23;;;;;;;7.50;4.25;;;;;;;26.76;47.35;101409.53;1739210;82;20967;-74
2021/08/09 07:47:52;;;;;;;5.45;4.03;;;;;;;26.83;46.83;101411.77;1745993;80;21901;-73
2021/08/09 07:50:24;;;;;;;9.58;4.10;;;;;;;26.90;45.53;101421.16;1725364;82;21628;-74
2021/08/09 07:52:51;;;;;;;8.33;3.65;;;;;;;26.98;45.22;101423.72;1697969;83;21006;-73
2021/08/09 07:55:19;;;;;;;8.80;4.30;;;;;;;27.08;45.06;101408.75;1716592;83;20940;-74
2021/08/09 07:57:47;;;;;;;7.72;4.53;;;;;;;27.17;44.63;101405.77;1716518;83;20995;-78
2021/08/09 08:00:16;;;;;;;14.83;5.72;;;;;;;27.29;43.86;101411.39;1716851;83;21159;-76
2021/08/09 08:02:48;;;;;;;9.15;4.35;;;;;;;27.39;49.33;101408.40;1718755;83;20888;-78
2021/08/09 08:05:16;;;;;;;20.90;16.37;;;;;;;27.34;50.64;101404.49;1718964;80;20900;-74
2021/08/09 08:07:43;;;;;;;8.60;7.87;;;;;;;27.38;50.48;101406.77;1724909;82;21018;-78
2021/08/09 08:10:11;;;;;;;6.60;5.28;;;;;;;27.40;49.31;101399.39;1737899;82;21509;-78
2021/08/09 08:12:40;;;;;;;7.10;5.00;;;;;;;27.43;49.58;101408.34;1746277;82;20885;-72
2021/08/09 08:15:09;;;;;;;7.03;4.28;;;;;;;27.46;49.14;101417.31;1724747;80;20999;-79
2021/08/09 08:17:36;;;;;;;6.92;3.65;;;;;;;27.45;48.81;101413.81;1716551;83;21476;-81
2021/08/09 08:20:05;;;;;;;8.05;3.20;;;;;;;27.39;48.42;101418.56;1745472;80;21549;-82
2021/08/09 08:22:33;;;;;;;5.20;3.35;;;;;;;27.33;49.06;101408.67;1746452;82;20872;-78
2021/08/09 08:25:01;;;;;;;7.05;3.55;;;;;;;27.38;48.86;101400.91;1745988;82;39093;-81
2021/08/09 08:27:28;;;;;;;10.53;3.35;;;;;;;27.43;47.96;101396.34;1746243;82;20971;-79
2021/08/09 08:29:57;;;;;;;9.20;3.95;;;;;;;27.48;45.89;101404.09;1746199;82;21050;-81
2021/08/09 08:32:24;;;;;;;17.62;6.40;;;;;;;27.46;46.62;101397.32;1746448;82;20976;-78
2021/08/09 08:34:52;;;;;;;40.73;8.38;;;;;;;27.44;45.87;101394.86;1746437;82;20916;-77
2021/08/09 08:37:20;;;;;;;39.40;8.03;;;;;;;27.48;46.04;101397.44;1746151;82;21170;-78
2021/08/09 08:39:47;;;;;;;25.48;6.05;;;;;;;27.57;45.98;101399.47;1746328;82;20932;-79
2021/08/09 08:42:16;;;;;;;9.33;4.03;;;;;;;27.64;45.57;101393.65;1746410;82;21632;-80
2021/08/09 08:44:45;;;;;;;9.85;4.22;;;;;;;27.70;45.99;101399.53;1726831;82;20864;-75
2021/08/09 08:47:16;;;;;;;8.28;3.90;;;;;;;27.75;46.02;101395.79;1746121;80;20936;-77
2021/08/09 08:49:44;;;;;;;;;;;;;;;27.74;47.00;101396.80;1748803;82;21137;-77
2021/08/09 08:52:11;;;;;;;7.40;3.42;;;;;;;27.83;47.77;101396.45;1746196;82;20083;-77
2021/08/09 08:54:41;;;;;;;9.60;4.25;;;;;;;27.94;47.73;101393.75;1746409;82;20932;-75
2021/08/09 08:57:23;;;;;;;6.35;3.70;;;;;;;28.02;47.79;101392.75;1746359;82;20976;-75
2021/08/09 08:59:50;;;;;;;5.15;3.50;;;;;;;28.02;48.62;101388.75;1746255;80;20984;-79
2021/08/09 09:02:37;;;;;;;4.60;3.15;;;;;;;28.01;47.74;101383.94;1746284;82;21733;-75
2021/08/09 09:05:13;;;;;;;3.60;3.30;;;;;;;28.03;47.75;101383.73;1725239;82;20953;-79
2021/08/09 09:07:48;;;;;;;4.10;3.20;;;;;;;28.01;47.85;101383.94;1725321;83;20933;-77
2021/08/09 09:10:18;;;;;;;4.53;3.30;;;;;;;28.09;47.04;101391.80;1725589;83;20886;-77
2021/08/09 09:13:09;;;;;;;6.15;3.25;;;;;;;28.21;46.89;101388.05;1725521;83;20924;-80
2021/08/09 09:16:07;;;;;;;4.70;3.00;;;;;;;28.29;46.05;101394.06;1725164;82;20961;-79
2021/08/09 09:18:49;;;;;;;4.55;3.60;;;;;;;28.28;44.83;101383.56;1730128;83;21022;-79
2021/08/09 09:21:31;;;;;;;8.40;4.00;;;;;;;28.24;44.98;101384.47;1730475;83;21556;-79
2021/08/09 09:24:14;;;;;;;6.00;3.37;;;;;;;28.27;46.17;101384.07;1730175;83;20979;-76
2021/08/09 09:26:43;;;;;;;3.95;3.40;;;;;;;28.35;46.52;101385.25;1730550;81;20888;-81
2021/08/09 09:29:16;;;;;;;4.72;3.62;;;;;;;28.41;46.15;101390.80;1730820;83;21182;-78
2021/08/09 09:31:46;;;;;;;6.75;3.70;;;;;;;28.46;46.33;101387.87;1730315;83;20991;-73
2021/08/09 09:34:17;;;;;;;4.47;3.60;;;;;;;28.59;46.27;101386.55;1730682;81;21077;-81
2021/08/09 09:36:57;;;;;;;8.90;3.67;;;;;;;28.72;44.37;101383.94;1730156;83;21447;-82
2021/08/09 09:39:35;;;;;;;7.17;3.72;;;;;;;28.92;44.70;101378.64;1730665;83;21423;-77
2021/08/09 09:42:10;;;;;;;6.53;3.58;;;;;;;29.05;43.69;101377.31;1730497;83;21323;-77
2021/08/09 09:44:39;;;;;;;9.63;3.87;;;;;;;29.12;43.02;101355.94;1730506;83;20993;-74
2021/08/09 09:47:26;;;;;;;9.13;4.03;;;;;;;29.35;41.93;101363.89;1730065;83;21280;-74
2021/08/09 09:49:58;;;;;;;5.92;3.55;;;;;;;29.61;42.16;101388.42;1730284;83;20903;-82
2021/08/09 09:52:45;;;;;;;4.90;3.55;;;;;;;29.81;40.84;101380.36;1730262;82;21558;-77
2021/08/09 09:55:15;;;;;;;4.72;3.67;;;;;;;29.99;41.96;101377.89;1730186;83;21145;-83
2021/08/09 09:57:43;;;;;;;12.43;11.10;;;;;;;30.16;42.43;101382.23;1730222;83;20896;-76
2021/08/09 10:00:13;;;;;;;9.40;5.40;;;;;;;30.32;40.94;101385.26;1730176;83;21558;-76
2021/08/09 10:02:41;;;;;;;6.12;4.35;;;;;;;30.93;38.27;101383.39;1730381;81;21509;-77
2021/08/09 10:05:09;;;;;;;10.75;4.10;;;;;;;31.58;37.29;101382.59;1730288;83;21569;-77
2021/08/09 10:07:37;;;;;;;6.92;4.08;;;;;;;32.45;36.46;101373.62;1730259;83;22002;-81
2021/08/09 10:10:07;;;;;;;12.00;10.68;;;;;;;33.47;34.41;101375.15;1730202;83;21030;-76
2021/08/09 10:12:38;;;;;;;8.97;4.97;;;;;;;34.47;34.18;101370.29;1730549;83;20900;-78
2021/08/09 10:15:08;;;;;;;5.35;3.67;;;;;;;35.68;30.06;101362.04;1730134;81;21088;-80
2021/08/09 10:17:36;;;;;;;5.62;3.15;;;;;;;35.98;29.39;101365.67;1728293;82;21416;-75
2021/08/09 10:20:10;;;;;;;4.25;3.00;;;;;;;36.55;28.42;101360.14;1708709;83;21096;-76
2021/08/09 10:22:37;;;;;;;8.60;3.62;;;;;;;37.31;26.61;101370.23;1711592;81;21042;-77
2021/08/09 10:25:06;;;;;;;4.97;3.17;;;;;;;37.30;26.41;101373.22;1680579;83;21451;-78
2021/08/09 10:27:51;;;;;;;6.33;3.25;;;;;;;37.45;26.35;101367.89;1725537;83;20885;-75
2021/08/09 10:30:22;;;;;;;13.55;3.92;;;;;;;37.56;26.62;101366.34;1730092;82;20940;-76
2021/08/09 10:32:57;;;;;;;3.10;2.70;;;;;;;37.58;26.91;101356.63;1716501;83;21097;-75
2021/08/09 10:35:39;;;;;;;5.10;2.62;;;;;;;37.45;26.62;101362.48;1716462;83;21046;-79
2021/08/09 10:38:24;;;;;;;3.55;3.00;;;;;;;36.77;26.19;101361.94;1716483;83;21086;-79
2021/08/09 10:41:12;;;;;;;3.27;2.98;;;;;;;35.84;27.48;101367.10;1716560;83;20951;-81
2021/08/09 10:44:09;;;;;;;7.17;3.55;;;;;;;35.27;28.36;101362.50;1716472;83;20900;-81
2021/08/09 10:46:43;;;;;;;5.45;3.70;;;;;;;34.97;28.40;101354.19;1716808;83;21863;-77
2021/08/09 10:49:46;;;;;;;5.08;4.05;;;;;;;34.48;29.31;101372.45;1715867;83;21140;-77
2021/08/09 10:52:15;;;;;;;4.20;3.62;;;;;;;33.96;29.69;101363.06;1716675;83;21521;-78
2021/08/09 10:54:42;;;;;;;6.83;3.33;;;;;;;33.47;30.82;101363.04;1653377;83;20947;-77
2021/08/09 10:57:08;;;;;;;5.83;3.25;;;;;;;33.26;30.52;101362.81;1716515;83;21055;-77
2021/08/09 10:59:45;;;;;;;6.33;3.50;;;;;;;32.95;30.78;101366.09;1716790;83;21559;-77
2021/08/09 11:02:28;;;;;;;5.35;3.15;;;;;;;32.78;31.55;101369.67;1716418;83;20987;-78
2021/08/09 11:05:19;;;;;;;8.75;3.92;;;;;;;32.65;31.46;101355.91;1716987;83;21012;-82
2021/08/09 11:07:49;;;;;;;3.20;2.90;;;;;;;32.59;32.64;101358.17;1716432;83;20983;-81
2021/08/09 11:10:56;;;;;;;4.67;3.95;;;;;;;32.55;31.59;101351.57;1697188;83;21003;-77
2021/08/09 11:13:26;;;;;;;12.98;3.40;;;;;;;32.59;31.67;101354.66;1697339;84;21401;-76
2021/08/09 11:16:05;;;;;;;7.15;3.47;;;;;;;32.68;31.28;101355.45;1681806;84;21369;-78
2021/08/09 11:18:35;;;;;;;4.53;3.52;;;;;;;32.74;31.10;101352.38;1707533;84;21035;-78
2021/08/09 11:21:11;;;;;;;3.52;2.75;;;;;;;32.75;30.15;101358.86;1710236;84;21012;-76
2021/08/09 11:23:41;;;;;;;4.85;3.10;;;;;;;32.65;29.56;101347.84;1708275;84;21503;-76
2021/08/09 11:26:21;;;;;;;3.42;2.83;;;;;;;32.63;30.23;101350.47;1708069;84;21147;-77
2021/08/09 11:29:05;;;;;;;4.53;2.50;;;;;;;32.73;30.45;101350.22;1707918;84;20956;-73
2021/08/09 11:31:45;;;;;;;6.50;2.58;;;;;;;32.83;30.20;101346.44;1707740;83;21063;-74
2021/08/09 11:34:14;;;;;;;3.58;2.77;;;;;;;32.91;30.38;101333.17;1708310;83;20936;-76
2021/08/09 11:36:42;;;;;;;4.05;2.37;;;;;;;32.97;30.43;101337.09;1708272;84;21455;-78
2021/08/09 11:39:08;;;;;;;3.60;3.00;;;;;;;33.03;30.71;101335.89;1708026;83;21134;-77